Time;durP1;ratioP1;P1;durP2;ratioP2;P2;SDS_P1;SDS_P2;PMS_P1;PMS_P2;Temp;Humidity;BMP_temperature;BMP_pressure;BME280_temperature;BME280_humidity;BME280_pressure;Samples;Min_cycle;Max_cycle;Signal;HPM_P1;HPM_P2
2023/12/20 00:01:39;;;;;;;18.02;3.17;;;7.00;99.90;;;;;;5064868;28;20236;-39
2023/12/20 00:04:06;;;;;;;18.75;3.08;;;6.90;99.90;;;;;;5063495;28;20190;-40
2023/12/20 00:06:31;;;;;;;14.10;3.00;;;6.90;99.90;;;;;;5066484;28;20681;-37
2023/12/20 00:08:57;;;;;;;16.45;2.90;;;6.90;99.90;;;;;;5062852;28;20194;-39
2023/12/20 00:11:24;;;;;;;27.08;3.50;;;6.80;99.90;;;;;;5064944;28;20197;-39
2023/12/20 00:13:50;;;;;;;16.23;3.17;;;6.80;99.90;;;;;;5065852;28;20699;-39
2023/12/20 00:16:16;;;;;;;17.38;2.88;;;6.80;99.90;;;;;;5064220;28;20206;-39
2023/12/20 00:18:42;;;;;;;23.38;3.38;;;6.80;99.90;;;;;;5063871;28;20250;-38
2023/12/20 00:21:07;;;;;;;23.48;3.60;;;6.70;99.90;;;;;;5065679;28;20194;-40
2023/12/20 00:23:33;;;;;;;18.73;3.50;;;6.70;99.90;;;;;;5063373;28;20280;-39
2023/12/20 00:25:59;;;;;;;24.25;3.63;;;6.70;99.90;;;;;;5064774;28;20175;-38
2023/12/20 00:28:25;;;;;;;19.75;3.65;;;6.60;99.90;;;;;;5064444;28;20191;-39
2023/12/20 00:30:51;;;;;;;27.10;3.78;;;6.60;99.90;;;;;;5064821;28;20202;-38
2023/12/20 00:33:17;;;;;;;19.70;2.88;;;6.60;99.90;;;;;;5065730;28;20194;-39
2023/12/20 00:35:43;;;;;;;24.05;3.42;;;6.60;99.90;;;;;;5063857;28;20234;-37
2023/12/20 00:38:09;;;;;;;20.50;4.00;;;6.60;99.90;;;;;;5062618;28;20287;-39
2023/12/20 00:40:35;;;;;;;22.83;3.40;;;6.60;99.90;;;;;;5081063;28;20195;-37
2023/12/20 00:43:01;;;;;;;19.40;3.70;;;6.50;99.90;;;;;;5063526;28;20186;-38
2023/12/20 00:45:27;;;;;;;19.17;3.53;;;6.60;99.90;;;;;;5064088;28;20191;-38
2023/12/20 00:47:53;;;;;;;16.10;3.60;;;6.60;99.90;;;;;;5063954;28;20202;-40
2023/12/20 00:50:19;;;;;;;22.23;3.72;;;6.70;99.90;;;;;;5059031;28;20192;-36
2023/12/20 00:52:46;;;;;;;18.60;3.50;;;6.70;99.90;;;;;;5063086;28;20194;-39
2023/12/20 00:55:11;;;;;;;18.80;3.22;;;6.80;99.90;;;;;;5064030;28;20193;-42
2023/12/20 00:57:37;;;;;;;18.33;2.92;;;6.80;99.90;;;;;;5063676;28;20210;-38
2023/12/20 01:00:04;;;;;;;22.80;3.58;;;6.80;99.90;;;;;;5065095;28;20182;-39
2023/12/20 01:02:30;;;;;;;19.90;3.28;;;6.80;99.90;;;;;;5063631;28;20718;-37
2023/12/20 01:04:56;;;;;;;22.80;3.35;;;6.80;99.90;;;;;;5062281;28;20187;-39
2023/12/20 01:07:22;;;;;;;23.80;3.45;;;6.80;99.90;;;;;;5064014;28;20274;-38
2023/12/20 01:09:48;;;;;;;16.33;2.90;;;6.80;99.90;;;;;;5060870;28;20259;-40
2023/12/20 01:12:14;;;;;;;19.45;3.53;;;6.80;99.90;;;;;;5063502;28;20186;-37
2023/12/20 01:14:40;;;;;;;18.38;3.45;;;6.80;99.90;;;;;;5065655;28;20195;-40
2023/12/20 01:17:06;;;;;;;22.33;3.35;;;6.70;99.90;;;;;;5063509;28;20285;-38
2023/12/20 01:19:32;;;;;;;13.93;2.78;;;6.80;99.90;;;;;;5061063;28;20225;-39
2023/12/20 01:21:57;;;;;;;15.25;2.95;;;6.70;99.90;;;;;;5064537;28;20189;-39
2023/12/20 01:24:23;;;;;;;17.98;2.88;;;6.70;99.90;;;;;;5062555;28;20210;-38
2023/12/20 01:26:49;;;;;;;21.83;3.35;;;6.70;99.90;;;;;;5063346;28;20199;-40
2023/12/20 01:29:15;;;;;;;21.60;3.63;;;6.70;99.90;;;;;;5062638;28;20194;-40
2023/12/20 01:31:41;;;;;;;24.27;3.38;;;6.70;99.90;;;;;;5064239;28;20620;-39
2023/12/20 01:34:07;;;;;;;29.23;4.03;;;6.80;99.90;;;;;;5063142;28;20186;-37
2023/12/20 01:36:33;;;;;;;25.75;4.00;;;6.80;99.90;;;;;;5063146;28;20194;-38
2023/12/20 01:38:59;;;;;;;22.58;3.63;;;6.90;99.90;;;;;;5062444;28;20282;-39
2023/12/20 01:41:25;;;;;;;23.65;3.20;;;7.00;99.90;;;;;;5064235;28;21997;-41
2023/12/20 01:43:52;;;;;;;20.65;3.47;;;7.00;99.90;;;;;;5060810;28;20187;-41
2023/12/20 01:46:20;;;;;;;24.27;3.70;;;7.00;99.90;;;;;;5061642;28;20190;-39
2023/12/20 01:48:48;;;;;;;19.30;3.45;;;7.10;99.90;;;;;;5064578;28;21175;-38
2023/12/20 01:51:14;;;;;;;25.23;3.50;;;7.10;99.90;;;;;;5063157;28;20191;-41
2023/12/20 01:53:41;;;;;;;17.60;2.97;;;7.20;99.90;;;;;;5061830;28;20556;-39
2023/12/20 01:56:08;;;;;;;27.60;4.03;;;7.20;99.90;;;;;;5062980;28;20182;-39
2023/12/20 01:58:37;;;;;;;19.88;3.50;;;7.20;99.90;;;;;;5063528;28;20249;-42
2023/12/20 02:01:03;;;;;;;22.40;4.25;;;7.10;99.90;;;;;;5033532;28;20566;-40
2023/12/20 02:03:29;;;;;;;18.50;3.60;;;7.10;99.90;;;;;;5063046;28;20190;-39
2023/12/20 02:05:55;;;;;;;21.60;4.53;;;7.10;99.90;;;;;;5064083;28;20230;-39
2023/12/20 02:08:21;;;;;;;18.15;3.05;;;7.10;99.90;;;;;;5063377;28;20191;-37
2023/12/20 02:10:47;;;;;;;18.85;3.10;;;7.00;99.90;;;;;;5062239;28;20226;-39
2023/12/20 02:13:13;;;;;;;16.85;2.90;;;6.90;99.90;;;;;;5062957;28;20224;-38
2023/12/20 02:15:39;;;;;;;16.75;3.17;;;6.80;99.90;;;;;;5062548;28;20198;-38
2023/12/20 02:18:06;;;;;;;21.65;3.22;;;6.80;99.90;;;;;;5060364;28;20210;-36
2023/12/20 02:20:32;;;;;;;22.25;5.53;;;6.70;99.90;;;;;;5061933;28;20190;-37
2023/12/20 02:22:57;;;;;;;23.33;4.90;;;6.70;99.90;;;;;;5063159;28;20200;-39
2023/12/20 02:25:23;;;;;;;18.08;3.92;;;6.70;99.90;;;;;;5078920;28;20222;-39
2023/12/20 02:27:50;;;;;;;18.02;3.45;;;6.70;99.90;;;;;;5078953;28;20244;-39
2023/12/20 02:30:16;;;;;;;18.92;3.53;;;6.70;99.90;;;;;;5062737;28;20190;-39
2023/12/20 02:32:41;;;;;;;18.92;3.80;;;6.70;99.90;;;;;;5062426;28;20198;-38
2023/12/20 02:35:07;;;;;;;18.80;3.28;;;6.70;99.90;;;;;;5062362;28;20284;-40
2023/12/20 02:37:34;;;;;;;26.92;4.47;;;6.70;99.90;;;;;;5059345;28;20226;-39
2023/12/20 02:40:00;;;;;;;27.80;4.63;;;6.80;99.90;;;;;;5062380;28;20202;-39
2023/12/20 02:42:26;;;;;;;23.98;4.05;;;6.70;99.90;;;;;;5063565;28;20541;-35
2023/12/20 02:44:51;;;;;;;27.88;4.30;;;6.80;99.90;;;;;;5061981;28;20267;-38
2023/12/20 02:47:17;;;;;;;25.02;4.32;;;6.90;99.90;;;;;;5063379;28;20225;-37
2023/12/20 02:49:43;;;;;;;27.67;4.45;;;6.90;99.90;;;;;;5064743;28;20189;-40
2023/12/20 02:52:09;;;;;;;27.27;4.40;;;6.90;99.90;;;;;;5080661;28;20179;-40
2023/12/20 02:54:35;;;;;;;27.23;4.07;;;6.90;99.90;;;;;;5065930;28;20202;-37
2023/12/20 02:57:01;;;;;;;25.83;4.32;;;6.90;99.90;;;;;;5066769;28;20190;-39
2023/12/20 02:59:27;;;;;;;28.90;4.78;;;6.90;99.90;;;;;;5067042;28;20195;-38
2023/12/20 03:01:53;;;;;;;30.25;4.80;;;6.90;99.90;;;;;;5067163;28;20191;-41
2023/12/20 03:04:19;;;;;;;35.50;4.95;;;7.00;99.90;;;;;;5066315;28;20240;-40
2023/12/20 03:06:44;;;;;;;36.60;5.53;;;7.00;99.90;;;;;;5066110;28;20194;-38
2023/12/20 03:09:10;;;;;;;26.95;4.57;;;7.00;99.90;;;;;;5065292;28;20175;-38
2023/12/20 03:11:36;;;;;;;28.13;4.63;;;7.00;99.90;;;;;;5066330;28;20206;-37
2023/12/20 03:14:02;;;;;;;30.38;4.88;;;6.90;99.90;;;;;;5066081;28;20260;-38
2023/12/20 03:16:28;;;;;;;42.55;5.00;;;6.90;99.90;;;;;;5065984;28;20326;-40
2023/12/20 03:18:54;;;;;;;25.65;4.72;;;7.00;99.90;;;;;;5065228;28;21257;-39
2023/12/20 03:21:20;;;;;;;32.45;4.53;;;6.90;99.90;;;;;;5065755;28;20540;-40
2023/12/20 03:23:46;;;;;;;28.52;4.70;;;7.00;99.90;;;;;;5064821;28;20194;-38
2023/12/20 03:26:12;;;;;;;28.85;4.68;;;7.00;99.90;;;;;;5065858;28;20183;-38
2023/12/20 03:28:38;;;;;;;38.70;5.68;;;7.10;99.90;;;;;;5064897;28;20293;-40
2023/12/20 03:31:04;;;;;;;35.28;5.22;;;7.10;99.90;;;;;;5066668;28;20197;-38
2023/12/20 03:33:29;;;;;;;30.55;6.22;;;7.20;99.90;;;;;;5065789;28;20194;-38
2023/12/20 03:35:55;;;;;;;33.63;5.45;;;7.20;99.90;;;;;;5064765;28;20281;-39
2023/12/20 03:38:23;;;;;;;28.73;5.60;;;7.30;99.90;;;;;;5064152;28;20215;-38
2023/12/20 03:40:50;;;;;;;27.83;4.57;;;7.30;99.90;;;;;;5066029;28;20187;-38
2023/12/20 03:43:16;;;;;;;37.72;5.28;;;7.30;99.90;;;;;;5067117;28;20197;-36
2023/12/20 03:45:45;;;;;;;23.60;3.80;;;7.40;99.90;;;;;;5064495;28;20631;-38
2023/12/20 03:48:10;;;;;;;34.67;5.28;;;7.40;99.90;;;;;;5065379;28;20240;-38
2023/12/20 03:50:36;;;;;;;25.92;4.53;;;7.40;99.90;;;;;;5066185;28;20216;-36
2023/12/20 03:53:03;;;;;;;30.10;4.80;;;7.40;99.90;;;;;;5064931;28;20668;-39
2023/12/20 03:55:29;;;;;;;28.15;5.05;;;7.30;99.90;;;;;;5051237;28;20206;-38
2023/12/20 03:57:55;;;;;;;30.73;6.43;;;7.40;99.90;;;;;;5064151;28;20596;-38
2023/12/20 04:00:21;;;;;;;42.70;6.78;;;7.40;99.90;;;;;;5061855;28;20592;-39
2023/12/20 04:02:47;;;;;;;33.13;6.35;;;7.40;99.90;;;;;;5064275;28;20181;-39
2023/12/20 04:05:13;;;;;;;40.08;5.75;;;7.40;99.90;;;;;;5065089;28;20634;-40
2023/12/20 04:07:39;;;;;;;35.30;5.00;;;7.40;99.90;;;;;;5064037;28;20221;-37
2023/12/20 04:10:05;;;;;;;39.95;5.13;;;7.40;99.90;;;;;;5065909;28;20183;-38
2023/12/20 04:12:32;;;;;;;36.00;4.72;;;7.40;99.90;;;;;;5064337;28;20568;-38
2023/12/20 04:14:58;;;;;;;32.05;4.40;;;7.40;99.90;;;;;;5065550;28;20189;-37
2023/12/20 04:17:24;;;;;;;28.25;4.70;;;7.40;99.90;;;;;;5064926;28;20198;-39
2023/12/20 04:19:51;;;;;;;40.45;6.03;;;7.40;99.90;;;;;;5063566;28;20222;-38
2023/12/20 04:22:20;;;;;;;33.90;5.25;;;7.40;99.90;;;;;;5063952;28;20240;-39
2023/12/20 04:24:46;;;;;;;29.58;4.43;;;7.40;99.90;;;;;;5064786;28;20210;-38
2023/12/20 04:27:12;;;;;;;29.25;4.65;;;7.40;99.90;;;;;;5062571;28;20186;-39
2023/12/20 04:29:37;;;;;;;36.65;5.03;;;7.40;99.90;;;;;;5062682;28;20259;-40
2023/12/20 04:32:04;;;;;;;31.60;4.90;;;7.50;99.90;;;;;;5065316;28;20187;-40
2023/12/20 04:34:30;;;;;;;33.05;5.80;;;7.50;99.90;;;;;;5079052;28;20199;-41
2023/12/20 04:36:56;;;;;;;39.28;6.22;;;7.50;99.90;;;;;;5062744;28;20189;-37
2023/12/20 04:39:22;;;;;;;29.67;5.85;;;7.50;99.90;;;;;;5065463;28;20210;-40
2023/12/20 04:41:48;;;;;;;36.85;5.75;;;7.60;99.90;;;;;;5063949;28;20183;-39
2023/12/20 04:44:14;;;;;;;34.10;5.75;;;7.60;99.90;;;;;;5064169;28;20551;-40
2023/12/20 04:46:40;;;;;;;38.67;6.60;;;7.70;99.90;;;;;;5064305;28;20655;-39
2023/12/20 04:49:06;;;;;;;38.28;7.32;;;7.70;99.90;;;;;;5079919;28;20266;-38
2023/12/20 04:51:34;;;;;;;29.65;6.45;;;7.80;99.90;;;;;;5063991;28;20183;-39
2023/12/20 04:54:01;;;;;;;30.83;6.38;;;7.80;99.90;;;;;;5064944;28;20240;-42
2023/12/20 04:56:27;;;;;;;30.65;6.03;;;7.90;99.90;;;;;;5064745;28;20274;-39
2023/12/20 04:58:53;;;;;;;34.92;7.20;;;7.90;99.90;;;;;;5064512;28;20301;-36
2023/12/20 05:01:19;;;;;;;30.15;6.15;;;7.90;99.90;;;;;;5063372;28;20235;-40
2023/12/20 05:03:44;;;;;;;40.63;7.00;;;8.00;99.90;;;;;;5064578;28;20187;-38
2023/12/20 05:06:10;;;;;;;29.83;5.82;;;8.00;99.90;;;;;;5063539;28;20186;-42
2023/12/20 05:08:36;;;;;;;34.72;6.88;;;8.10;99.90;;;;;;5062053;28;20666;-41
2023/12/20 05:11:03;;;;;;;27.17;5.57;;;8.10;99.90;;;;;;5063553;28;20187;-39
2023/12/20 05:13:29;;;;;;;31.92;6.05;;;8.10;99.90;;;;;;5065665;28;20198;-40
2023/12/20 05:15:54;;;;;;;34.60;5.85;;;8.10;99.90;;;;;;5062413;28;20186;-39
2023/12/20 05:18:21;;;;;;;29.38;5.35;;;8.20;99.90;;;;;;5063707;28;20244;-41
2023/12/20 05:20:47;;;;;;;29.63;5.28;;;8.20;99.90;;;;;;5064377;28;20195;-39
2023/12/20 05:23:13;;;;;;;33.70;6.50;;;8.20;99.90;;;;;;5063524;28;20197;-39
2023/12/20 05:25:39;;;;;;;37.58;7.05;;;8.20;99.90;;;;;;5063571;28;20199;-40
2023/12/20 05:28:05;;;;;;;27.90;5.70;;;8.20;99.90;;;;;;5062701;28;20232;-40
2023/12/20 05:30:31;;;;;;;39.60;6.45;;;8.20;99.90;;;;;;5063486;28;20654;-41
2023/12/20 05:32:57;;;;;;;34.80;5.50;;;8.20;99.90;;;;;;5062135;28;20301;-38
2023/12/20 05:35:23;;;;;;;41.40;6.28;;;8.20;99.90;;;;;;5045585;28;20705;-36
2023/12/20 05:37:49;;;;;;;27.30;5.78;;;8.30;99.90;;;;;;5063544;28;20268;-37
2023/12/20 05:40:15;;;;;;;26.50;5.35;;;8.30;99.90;;;;;;5063467;28;20597;-41
2023/12/20 05:42:41;;;;;;;33.28;5.90;;;8.30;99.90;;;;;;5062738;28;20214;-38
2023/12/20 05:45:08;;;;;;;36.50;6.88;;;8.30;99.90;;;;;;5062269;28;20606;-39
2023/12/20 05:47:33;;;;;;;23.48;6.05;;;8.30;99.90;;;;;;5066108;28;20197;-38
2023/12/20 05:49:59;;;;;;;27.77;4.60;;;8.30;99.90;;;;;;5062229;28;20191;-39
2023/12/20 05:52:25;;;;;;;29.75;5.20;;;8.30;99.90;;;;;;5063779;28;20233;-43
2023/12/20 05:54:52;;;;;;;35.08;5.63;;;8.30;99.90;;;;;;5062819;28;20749;-42
2023/12/20 05:57:17;;;;;;;28.15;5.05;;;8.40;99.90;;;;;;5062628;28;20268;-40
2023/12/20 05:59:43;;;;;;;31.65;6.03;;;8.40;99.90;;;;;;5061044;28;20239;-40
2023/12/20 06:02:09;;;;;;;30.98;6.68;;;8.40;99.90;;;;;;5064432;28;20257;-38
2023/12/20 06:04:35;;;;;;;28.92;5.85;;;8.40;99.90;;;;;;5061872;28;20561;-39
2023/12/20 06:07:01;;;;;;;28.05;5.70;;;8.40;99.90;;;;;;5062471;28;20852;-41
2023/12/20 06:09:27;;;;;;;28.25;5.97;;;8.40;99.90;;;;;;5061721;28;20562;-37
2023/12/20 06:11:53;;;;;;;25.70;6.07;;;8.40;99.90;;;;;;5063313;28;20237;-41
2023/12/20 06:14:19;;;;;;;29.48;6.65;;;8.40;99.90;;;;;;5062199;28;20662;-39
2023/12/20 06:16:45;;;;;;;35.72;6.05;;;8.40;99.90;;;;;;5062383;28;20208;-39
2023/12/20 06:19:11;;;;;;;36.03;5.40;;;8.40;99.90;;;;;;5062067;28;20218;-39
2023/12/20 06:21:37;;;;;;;32.83;4.85;;;8.50;99.90;;;;;;5062905;28;20236;-40
2023/12/20 06:24:03;;;;;;;37.80;5.63;;;8.50;99.90;;;;;;5060725;28;20182;-39
2023/12/20 06:26:29;;;;;;;29.40;5.47;;;8.50;99.90;;;;;;5061529;28;20228;-41
2023/12/20 06:28:55;;;;;;;33.20;5.53;;;8.50;99.90;;;;;;5061103;28;20222;-40
2023/12/20 06:31:21;;;;;;;29.88;5.40;;;8.60;99.90;;;;;;5061811;28;20637;-42
2023/12/20 06:33:49;;;;;;;36.20;7.18;;;8.60;99.90;;;;;;5062512;28;20206;-40
2023/12/20 06:36:15;;;;;;;36.50;5.78;;;8.60;99.90;;;;;;5061645;28;20708;-40
2023/12/20 06:38:42;;;;;;;30.38;5.78;;;8.60;99.90;;;;;;5062696;28;20206;-39
2023/12/20 06:41:08;;;;;;;26.42;6.38;;;8.60;99.90;;;;;;5062905;28;20182;-38
2023/12/20 06:43:34;;;;;;;30.83;5.90;;;8.60;99.90;;;;;;5063201;28;20187;-37
2023/12/20 06:46:03;;;;;;;28.50;5.85;;;8.60;99.90;;;;;;5075612;28;20186;-37
2023/12/20 06:48:28;;;;;;;29.95;6.28;;;8.60;99.90;;;;;;5062225;28;20187;-38
2023/12/20 06:50:54;;;;;;;28.05;5.07;;;8.60;99.90;;;;;;5060287;28;20187;-41
2023/12/20 06:53:20;;;;;;;30.58;5.72;;;8.60;99.90;;;;;;5061649;28;20194;-39
2023/12/20 06:55:46;;;;;;;25.15;5.10;;;8.70;99.90;;;;;;5062954;28;20227;-39
2023/12/20 06:58:12;;;;;;;33.00;6.45;;;8.70;99.90;;;;;;5061235;28;20232;-41
2023/12/20 07:00:38;;;;;;;36.25;6.47;;;8.70;99.90;;;;;;5062280;28;20198;-39
2023/12/20 07:03:04;;;;;;;30.38;6.03;;;8.70;99.90;;;;;;5045825;28;20202;-41
2023/12/20 07:05:30;;;;;;;29.30;6.07;;;8.70;99.90;;;;;;5062108;28;20214;-41
2023/12/20 07:07:55;;;;;;;23.17;5.60;;;8.70;99.90;;;;;;5062143;28;20218;-42
2023/12/20 07:10:22;;;;;;;28.30;4.60;;;8.70;99.90;;;;;;5060913;28;20657;-39
2023/12/20 07:12:48;;;;;;;24.40;5.70;;;8.80;99.90;;;;;;5062942;28;20217;-41
2023/12/20 07:15:14;;;;;;;31.80;5.53;;;8.80;99.90;;;;;;5060903;28;20255;-40
2023/12/20 07:17:40;;;;;;;30.27;5.55;;;8.80;99.90;;;;;;5061709;28;20215;-39
2023/12/20 07:20:09;;;;;;;27.80;5.50;;;8.80;99.90;;;;;;5060490;28;20246;-40
2023/12/20 07:22:36;;;;;;;25.48;4.78;;;8.80;99.90;;;;;;5062153;28;20182;-39
2023/12/20 07:25:01;;;;;;;29.45;5.57;;;8.90;99.90;;;;;;5061251;28;20354;-42
2023/12/20 07:27:27;;;;;;;24.73;4.10;;;8.90;99.90;;;;;;5062184;28;20294;-43
2023/12/20 07:29:53;;;;;;;27.08;5.30;;;8.90;99.90;;;;;;5046176;28;20186;-39
2023/12/20 07:32:19;;;;;;;31.40;5.43;;;8.90;99.90;;;;;;5060960;28;20653;-40
2023/12/20 07:34:45;;;;;;;29.98;5.55;;;8.90;99.90;;;;;;5061712;28;20194;-43
2023/12/20 07:37:11;;;;;;;29.25;5.57;;;8.90;99.90;;;;;;5064285;28;20205;-41
2023/12/20 07:39:41;;;;;;;29.42;4.88;;;9.00;99.90;;;;;;5064592;28;20183;-39
2023/12/20 07:42:07;;;;;;;35.15;5.05;;;9.00;99.90;;;;;;5066221;28;20243;-38
2023/12/20 07:44:35;;;;;;;28.83;4.53;;;9.00;99.90;;;;;;5065145;28;20182;-38
2023/12/20 07:47:01;;;;;;;36.70;5.82;;;9.00;99.90;;;;;;5065871;28;20248;-40
2023/12/20 07:49:28;;;;;;;29.42;5.00;;;9.00;99.90;;;;;;5065277;28;20198;-39
2023/12/20 07:51:53;;;;;;;24.25;4.22;;;9.00;99.90;;;;;;5063954;28;20190;-41
2023/12/20 07:54:19;;;;;;;26.23;5.10;;;9.00;99.90;;;;;;5080352;28;20678;-36
2023/12/20 07:56:46;;;;;;;28.75;4.85;;;9.00;99.90;;;;;;5064537;28;20186;-41
2023/12/20 07:59:12;;;;;;;39.35;5.45;;;9.00;99.90;;;;;;5064937;28;20309;-41
2023/12/20 08:01:38;;;;;;;23.33;4.95;;;9.00;99.90;;;;;;5064340;28;20266;-40
2023/12/20 08:04:04;;;;;;;25.70;4.88;;;9.10;99.90;;;;;;5066637;28;20548;-40
2023/12/20 08:06:30;;;;;;;35.42;5.07;;;9.00;99.90;;;;;;5064038;28;20175;-37
2023/12/20 08:08:57;;;;;;;25.90;4.82;;;9.10;99.90;;;;;;5064232;28;20278;-40
2023/12/20 08:11:22;;;;;;;26.90;4.82;;;9.10;99.90;;;;;;5065840;28;20575;-38
2023/12/20 08:13:48;;;;;;;23.00;4.18;;;9.10;99.90;;;;;;5063161;28;20178;-38
2023/12/20 08:16:15;;;;;;;32.13;5.13;;;9.10;99.90;;;;;;5063969;28;20189;-41
2023/12/20 08:18:41;;;;;;;21.90;4.80;;;9.10;99.90;;;;;;5065985;28;20242;-38
2023/12/20 08:21:08;;;;;;;26.75;3.65;;;9.10;99.90;;;;;;5063252;28;20195;-38
2023/12/20 08:23:34;;;;;;;28.67;5.07;;;9.20;99.90;;;;;;5063604;28;20183;-40
2023/12/20 08:26:09;;;;;;;26.98;4.30;;;9.20;99.90;;;;;;5065592;28;20280;-41
2023/12/20 08:28:36;;;;;;;28.77;4.85;;;9.20;99.90;;;;;;5063921;28;20325;-39
2023/12/20 08:31:02;;;;;;;26.60;4.72;;;9.20;99.90;;;;;;5063023;28;20306;-39
2023/12/20 08:33:28;;;;;;;27.88;5.00;;;9.20;99.90;;;;;;5062048;28;20186;-36
2023/12/20 08:35:54;;;;;;;23.35;4.55;;;9.20;99.90;;;;;;5063589;28;20191;-38
2023/12/20 08:38:20;;;;;;;26.10;4.43;;;9.20;99.90;;;;;;5062192;28;20643;-40
2023/12/20 08:40:46;;;;;;;10.95;2.33;;;9.30;99.90;;;;;;5064203;28;20278;-41
2023/12/20 08:43:12;;;;;;;5.95;1.67;;;9.20;99.90;;;;;;5063289;28;20189;-39
2023/12/20 08:45:38;;;;;;;5.80;1.75;;;8.90;99.90;;;;;;5063209;28;20198;-39
2023/12/20 08:48:05;;;;;;;4.45;1.40;;;8.60;99.90;;;;;;5064457;28;20721;-42
2023/12/20 08:50:31;;;;;;;10.68;2.13;;;8.30;99.90;;;;;;5064150;28;20254;-39
2023/12/20 08:52:57;;;;;;;12.73;2.08;;;7.90;99.90;;;;;;5060316;28;20218;-41
2023/12/20 08:55:22;;;;;;;7.13;1.05;;;7.60;99.90;;;;;;5064221;28;20686;-40
2023/12/20 08:57:49;;;;;;;7.43;1.95;;;7.20;99.90;;;;;;5063225;28;20256;-38
2023/12/20 09:00:16;;;;;;;9.65;1.88;;;6.90;99.90;;;;;;5063374;28;20594;-39
2023/12/20 09:02:42;;;;;;;7.00;1.42;;;6.70;99.90;;;;;;5063882;28;20692;-40
2023/12/20 09:05:08;;;;;;;12.80;1.98;;;6.60;99.90;;;;;;5063266;28;20212;-36
2023/12/20 09:07:34;;;;;;;11.95;2.20;;;6.50;99.90;;;;;;5063280;28;20190;-37
2023/12/20 09:10:00;;;;;;;19.55;2.50;;;6.40;99.90;;;;;;5062872;28;20195;-38
2023/12/20 09:12:27;;;;;;;16.70;2.22;;;6.40;99.90;;;;;;5064144;28;20194;-39
2023/12/20 09:14:53;;;;;;;19.15;2.30;;;6.40;99.90;;;;;;5064748;28;20528;-38
2023/12/20 09:17:20;;;;;;;21.65;2.53;;;6.40;99.90;;;;;;5061123;28;20248;-39
2023/12/20 09:19:46;;;;;;;18.70;2.97;;;6.30;99.90;;;;;;5061629;28;20226;-38
2023/12/20 09:22:12;;;;;;;20.00;2.55;;;6.30;99.90;;;;;;5064071;28;20186;-39
2023/12/20 09:24:39;;;;;;;15.25;2.15;;;6.30;99.90;;;;;;5061585;28;20182;-37
2023/12/20 09:27:08;;;;;;;21.90;2.75;;;6.30;99.90;;;;;;5064502;28;20183;-38
2023/12/20 09:29:34;;;;;;;14.48;2.30;;;6.20;99.90;;;;;;5060981;28;20197;-38
2023/12/20 09:32:00;;;;;;;11.50;2.50;;;6.30;99.90;;;;;;5062243;28;20190;-39
2023/12/20 09:34:26;;;;;;;9.65;1.90;;;6.20;99.90;;;;;;5062923;28;20264;-40
2023/12/20 09:36:52;;;;;;;9.52;2.05;;;6.20;99.90;;;;;;5062213;28;20182;-36
2023/12/20 09:39:20;;;;;;;17.42;1.98;;;6.10;99.90;;;;;;5061430;28;20640;-40
2023/12/20 09:41:57;;;;;;;9.05;1.98;;;6.10;99.90;;;;;;5062767;28;20290;-37
2023/12/20 09:44:23;;;;;;;5.40;1.70;;;6.00;99.90;;;;;;5062660;28;20555;-39
2023/12/20 09:46:50;;;;;;;8.13;1.70;;;6.00;99.90;;;;;;5062130;28;20182;-39
2023/12/20 09:49:18;;;;;;;7.43;1.60;;;6.00;99.90;;;;;;5061530;28;20274;-38
2023/12/20 09:51:46;;;;;;;11.50;1.60;;;6.00;99.90;;;;;;5078560;28;20194;-39
2023/12/20 09:54:15;;;;;;;10.50;2.03;;;6.00;99.90;;;;;;5045573;28;20205;-38
2023/12/20 09:56:41;;;;;;;14.23;1.77;;;6.00;99.90;;;;;;5059499;28;20282;-40
2023/12/20 09:59:07;;;;;;;12.50;2.40;;;6.10;99.90;;;;;;5062860;28;20221;-40
2023/12/20 10:01:35;;;;;;;10.70;2.30;;;6.10;99.90;;;;;;5063230;28;20231;-38
2023/12/20 10:04:06;;;;;;;6.10;1.40;;;6.20;99.90;;;;;;5063645;28;20193;-38
2023/12/20 10:06:32;;;;;;;17.70;2.55;;;6.20;99.90;;;;;;5062170;28;20668;-40
2023/12/20 10:08:58;;;;;;;16.05;2.35;;;6.20;99.90;;;;;;5043081;28;20186;-37
2023/12/20 10:11:25;;;;;;;13.02;2.17;;;6.30;99.90;;;;;;5063145;28;20194;-38
2023/12/20 10:13:50;;;;;;;20.25;2.42;;;6.40;99.90;;;;;;5061868;28;20186;-40
2023/12/20 10:16:17;;;;;;;17.13;2.35;;;6.50;99.90;;;;;;5062090;28;20701;-40
2023/12/20 10:18:43;;;;;;;16.30;2.58;;;6.60;99.90;;;;;;5061833;28;20471;-39
2023/12/20 10:21:11;;;;;;;15.32;2.40;;;6.60;99.90;;;;;;5061612;28;20249;-39
2023/12/20 10:23:39;;;;;;;18.08;2.63;;;6.70;99.90;;;;;;5062372;28;20773;-38
2023/12/20 10:26:04;;;;;;;13.70;2.50;;;6.70;99.90;;;;;;5061462;28;20186;-39
2023/12/20 10:28:34;;;;;;;14.98;2.40;;;6.80;99.90;;;;;;5062879;28;20194;-39
2023/12/20 10:31:00;;;;;;;16.27;2.25;;;6.90;99.90;;;;;;5058834;28;20726;-40
2023/12/20 10:33:28;;;;;;;15.98;2.75;;;6.90;99.90;;;;;;5061332;28;20303;-39
2023/12/20 10:35:55;;;;;;;14.38;2.60;;;7.00;99.90;;;;;;5063635;28;20658;-38
2023/12/20 10:38:21;;;;;;;12.30;2.75;;;7.10;99.90;;;;;;5062139;28;20225;-37
2023/12/20 10:40:49;;;;;;;11.30;2.45;;;7.20;99.90;;;;;;5060907;28;20187;-39
2023/12/20 10:43:15;;;;;;;19.67;3.28;;;7.30;99.90;;;;;;5061053;28;20197;-39
2023/12/20 10:45:44;;;;;;;15.40;2.97;;;7.30;99.90;;;;;;5064061;28;20272;-41
2023/12/20 10:48:14;;;;;;;18.02;2.90;;;7.40;99.90;;;;;;5061118;28;20289;-42
2023/12/20 10:50:41;;;;;;;17.38;2.95;;;7.30;99.90;;;;;;5063209;28;20191;-43
2023/12/20 10:53:07;;;;;;;16.35;2.83;;;7.40;99.90;;;;;;5062280;28;20187;-38
2023/12/20 10:55:34;;;;;;;16.77;2.88;;;7.40;99.90;;;;;;5062046;28;20198;-40
2023/12/20 10:58:07;;;;;;;18.73;2.78;;;7.40;99.90;;;;;;5062365;28;20225;-42
2023/12/20 11:00:40;;;;;;;19.17;3.10;;;7.50;99.90;;;;;;5062654;28;20572;-40
2023/12/20 11:03:08;;;;;;;21.80;3.40;;;7.50;99.90;;;;;;5061629;28;20527;-38
2023/12/20 11:05:41;;;;;;;19.50;3.17;;;7.50;99.90;;;;;;5061515;28;20202;-40
2023/12/20 11:08:33;;;;;;;20.75;2.83;;;7.60;99.90;;;;;;5060786;28;20183;-38
2023/12/20 11:11:32;;;;;;;27.95;3.55;;;7.60;99.90;;;;;;5061371;28;20214;-40
2023/12/20 11:14:11;;;;;;;23.42;3.90;;;7.70;99.90;;;;;;5062875;28;20208;-37
2023/12/20 11:16:38;;;;;;;26.40;3.58;;;7.80;99.90;;;;;;5065864;28;20197;-41
2023/12/20 11:19:07;;;;;;;24.05;3.80;;;7.90;99.90;;;;;;5066983;28;20241;-41
2023/12/20 11:21:33;;;;;;;24.67;3.88;;;8.00;99.90;;;;;;5065102;28;20285;-38
2023/12/20 11:24:00;;;;;;;27.40;4.05;;;8.00;99.90;;;;;;5065520;28;20182;-41
2023/12/20 11:26:30;;;;;;;28.13;4.20;;;8.10;99.90;;;;;;5067633;28;20248;-39
2023/12/20 11:29:34;;;;;;;23.02;3.50;;;8.10;99.90;;;;;;5051691;28;20190;-40
2023/12/20 11:32:29;;;;;;;18.73;3.10;;;8.10;99.90;;;;;;5065216;28;21341;-40
2023/12/20 11:35:08;;;;;;;16.15;3.30;;;8.10;99.90;;;;;;5081896;28;20194;-40
2023/12/20 11:37:38;;;;;;;26.83;3.88;;;8.10;99.90;;;;;;5064604;28;20715;-41
2023/12/20 11:40:11;;;;;;;23.75;3.83;;;8.20;99.90;;;;;;5066275;28;21098;-41
2023/12/20 11:42:41;;;;;;;26.02;3.60;;;8.30;99.90;;;;;;5040451;28;20205;-42
2023/12/20 11:45:14;;;;;;;21.77;3.47;;;8.30;99.90;;;;;;5064090;28;20231;-43
2023/12/20 11:47:46;;;;;;;24.63;3.55;;;8.40;99.90;;;;;;5065480;28;20225;-39
2023/12/20 11:50:12;;;;;;;21.15;4.03;;;8.50;99.90;;;;;;5065789;28;20252;-40
2023/12/20 11:52:38;;;;;;;23.40;3.90;;;8.50;99.90;;;;;;5065917;28;20194;-41
2023/12/20 11:55:04;;;;;;;29.20;4.43;;;8.50;99.90;;;;;;5064760;28;20205;-39
2023/12/20 11:57:32;;;;;;;21.63;3.88;;;8.60;99.90;;;;;;5064069;28;20192;-38
2023/12/20 11:59:58;;;;;;;27.95;4.22;;;8.60;99.90;;;;;;5064553;28;20193;-40
2023/12/20 12:02:24;;;;;;;20.60;4.45;;;8.60;99.90;;;;;;5064053;28;20182;-41
2023/12/20 12:04:50;;;;;;;19.45;4.32;;;8.60;99.90;;;;;;5063941;28;20202;-39
2023/12/20 12:07:17;;;;;;;21.77;3.45;;;8.60;99.90;;;;;;5066711;28;20197;-39
2023/12/20 12:09:43;;;;;;;31.20;4.55;;;8.60;99.90;;;;;;5062793;28;20223;-39
2023/12/20 12:12:11;;;;;;;25.13;4.00;;;8.60;99.90;;;;;;5065091;28;20673;-40
2023/12/20 12:14:38;;;;;;;20.05;3.70;;;8.60;99.90;;;;;;5063621;28;20187;-41
2023/12/20 12:17:04;;;;;;;25.48;4.38;;;8.60;99.90;;;;;;5065083;28;20269;-40
2023/12/20 12:19:35;;;;;;;28.52;5.47;;;8.60;99.90;;;;;;5078663;28;20230;-38
2023/12/20 12:22:10;;;;;;;22.58;4.13;;;8.60;99.90;;;;;;5064384;28;20277;-41
2023/12/20 12:24:37;;;;;;;24.33;4.53;;;8.60;99.90;;;;;;5062986;28;20658;-40
2023/12/20 12:27:05;;;;;;;20.83;3.60;;;8.60;99.90;;;;;;5064116;28;20201;-39
2023/12/20 12:29:31;;;;;;;21.67;3.83;;;8.70;99.90;;;;;;5062594;28;20218;-39
2023/12/20 12:31:57;;;;;;;17.02;3.90;;;8.70;99.90;;;;;;5065151;28;20251;-39
2023/12/20 12:34:23;;;;;;;15.60;3.78;;;8.70;99.90;;;;;;5064152;28;20190;-39
2023/12/20 12:36:49;;;;;;;20.52;4.00;;;8.70;99.90;;;;;;5064452;28;20178;-41
2023/12/20 12:39:18;;;;;;;18.08;3.50;;;8.70;99.90;;;;;;5063704;28;20214;-41
2023/12/20 12:41:44;;;;;;;23.83;4.15;;;8.70;99.90;;;;;;5065668;28;20182;-39
2023/12/20 12:44:10;;;;;;;18.17;4.15;;;8.70;99.90;;;;;;5063739;28;20860;-39
2023/12/20 12:46:36;;;;;;;17.92;4.07;;;8.70;99.90;;;;;;5065104;28;20270;-38